sensor_id;sensor_type;location;lat;lon;timestamp;pressure;altitude;pressure_sealevel;temperature;humidity
39275;BME280;24980;48.874;2.332;2024-03-08T00:01:50;100578.20;;;25.19;37.84
39275;BME280;24980;48.874;2.332;2024-03-08T00:04:20;100573.06;;;25.26;37.84
39275;BME280;24980;48.874;2.332;2024-03-08T00:06:50;100572.37;;;25.32;37.85
39275;BME280;24980;48.874;2.332;2024-03-08T00:09:21;100573.02;;;25.36;37.84
39275;BME280;24980;48.874;2.332;2024-03-08T00:11:51;100569.10;;;25.39;37.87
39275;BME280;24980;48.874;2.332;2024-03-08T00:14:21;100569.97;;;25.43;37.85
39275;BME280;24980;48.874;2.332;2024-03-08T00:16:51;100566.95;;;25.45;37.88
39275;BME280;24980;48.874;2.332;2024-03-08T00:19:22;100564.16;;;25.47;37.90
39275;BME280;24980;48.874;2.332;2024-03-08T00:21:52;100561.41;;;25.48;37.92
39275;BME280;24980;48.874;2.332;2024-03-08T00:24:22;100560.30;;;25.52;37.94
39275;BME280;24980;48.874;2.332;2024-03-08T00:26:52;100554.48;;;25.53;37.97
39275;BME280;24980;48.874;2.332;2024-03-08T00:29:23;100554.98;;;25.53;38.01
39275;BME280;24980;48.874;2.332;2024-03-08T00:31:53;100549.20;;;25.54;38.03
39275;BME280;24980;48.874;2.332;2024-03-08T00:34:23;100545.39;;;25.54;38.08
39275;BME280;24980;48.874;2.332;2024-03-08T00:36:53;100541.07;;;25.53;38.11
39275;BME280;24980;48.874;2.332;2024-03-08T00:39:23;100538.39;;;25.55;38.12
39275;BME280;24980;48.874;2.332;2024-03-08T00:41:54;100531.26;;;25.56;38.15
39275;BME280;24980;48.874;2.332;2024-03-08T00:44:24;100522.22;;;25.56;38.16
39275;BME280;24980;48.874;2.332;2024-03-08T00:46:54;100521.77;;;25.57;38.16
39275;BME280;24980;48.874;2.332;2024-03-08T00:49:24;100518.70;;;25.57;38.16
39275;BME280;24980;48.874;2.332;2024-03-08T00:51:55;100513.45;;;25.57;38.18
39275;BME280;24980;48.874;2.332;2024-03-08T00:54:25;100509.80;;;25.58;38.18
39275;BME280;24980;48.874;2.332;2024-03-08T00:56:55;100508.77;;;25.58;38.20
39275;BME280;24980;48.874;2.332;2024-03-08T00:59:26;100503.94;;;25.60;38.22
39275;BME280;24980;48.874;2.332;2024-03-08T01:01:56;100500.94;;;25.61;38.19
39275;BME280;24980;48.874;2.332;2024-03-08T01:04:27;100492.98;;;25.62;38.20
39275;BME280;24980;48.874;2.332;2024-03-08T01:06:57;100490.59;;;25.63;38.21
39275;BME280;24980;48.874;2.332;2024-03-08T01:09:27;100491.51;;;25.63;38.20
39275;BME280;24980;48.874;2.332;2024-03-08T01:11:57;100485.15;;;25.63;38.17
39275;BME280;24980;48.874;2.332;2024-03-08T01:14:28;100477.16;;;25.64;38.16
39275;BME280;24980;48.874;2.332;2024-03-08T01:16:58;100474.45;;;25.63;38.15
39275;BME280;24980;48.874;2.332;2024-03-08T01:19:28;100469.00;;;25.62;38.14
39275;BME280;24980;48.874;2.332;2024-03-08T01:21:58;100466.16;;;25.63;38.13
39275;BME280;24980;48.874;2.332;2024-03-08T01:24:29;100465.77;;;25.64;38.11
39275;BME280;24980;48.874;2.332;2024-03-08T01:26:59;100464.06;;;25.65;38.08
39275;BME280;24980;48.874;2.332;2024-03-08T01:29:29;100462.47;;;25.66;38.06
39275;BME280;24980;48.874;2.332;2024-03-08T01:31:59;100455.66;;;25.67;38.04
39275;BME280;24980;48.874;2.332;2024-03-08T01:34:30;100454.81;;;25.67;38.03
39275;BME280;24980;48.874;2.332;2024-03-08T01:37:00;100448.38;;;25.66;38.02
39275;BME280;24980;48.874;2.332;2024-03-08T01:39:30;100446.52;;;25.66;38.02
39275;BME280;24980;48.874;2.332;2024-03-08T01:42:00;100438.61;;;25.66;38.00
39275;BME280;24980;48.874;2.332;2024-03-08T01:44:33;100430.11;;;25.67;37.99
39275;BME280;24980;48.874;2.332;2024-03-08T01:47:02;100421.61;;;25.67;37.96
39275;BME280;24980;48.874;2.332;2024-03-08T01:49:32;100420.75;;;25.70;37.93
39275;BME280;24980;48.874;2.332;2024-03-08T01:52:02;100420.38;;;25.71;37.90
39275;BME280;24980;48.874;2.332;2024-03-08T01:54:34;100421.48;;;25.73;37.87
39275;BME280;24980;48.874;2.332;2024-03-08T01:57:06;100416.05;;;25.73;37.85
39275;BME280;24980;48.874;2.332;2024-03-08T01:59:34;100411.31;;;25.72;37.85
39275;BME280;24980;48.874;2.332;2024-03-08T02:02:05;100405.86;;;25.71;37.86
39275;BME280;24980;48.874;2.332;2024-03-08T02:04:34;100406.45;;;25.71;37.88
39275;BME280;24980;48.874;2.332;2024-03-08T02:07:05;100400.94;;;25.71;37.88
39275;BME280;24980;48.874;2.332;2024-03-08T02:09:35;100394.30;;;25.74;37.84
39275;BME280;24980;48.874;2.332;2024-03-08T02:12:05;100391.08;;;25.76;37.83
39275;BME280;24980;48.874;2.332;2024-03-08T02:14:35;100382.75;;;25.76;37.82
39275;BME280;24980;48.874;2.332;2024-03-08T02:17:06;100383.61;;;25.76;37.82
39275;BME280;24980;48.874;2.332;2024-03-08T02:19:36;100379.20;;;25.76;37.82
39275;BME280;24980;48.874;2.332;2024-03-08T02:22:06;100380.17;;;25.77;37.81
39275;BME280;24980;48.874;2.332;2024-03-08T02:24:36;100368.80;;;25.77;37.81
39275;BME280;24980;48.874;2.332;2024-03-08T02:27:07;100369.03;;;25.78;37.80
39275;BME280;24980;48.874;2.332;2024-03-08T02:29:37;100365.62;;;25.80;37.77
39275;BME280;24980;48.874;2.332;2024-03-08T02:32:08;100363.86;;;25.82;37.76
39275;BME280;24980;48.874;2.332;2024-03-08T02:34:38;100357.34;;;25.84;37.74
39275;BME280;24980;48.874;2.332;2024-03-08T02:37:08;100353.83;;;25.82;37.74
39275;BME280;24980;48.874;2.332;2024-03-08T02:39:39;100352.62;;;25.81;37.74
39275;BME280;24980;48.874;2.332;2024-03-08T02:42:09;100345.34;;;25.82;37.74
39275;BME280;24980;48.874;2.332;2024-03-08T02:44:42;100344.45;;;25.81;37.72
39275;BME280;24980;48.874;2.332;2024-03-08T02:47:10;100339.79;;;25.81;37.74
39275;BME280;24980;48.874;2.332;2024-03-08T02:49:40;100335.80;;;25.81;37.74
39275;BME280;24980;48.874;2.332;2024-03-08T02:52:10;100330.04;;;25.83;37.73
39275;BME280;24980;48.874;2.332;2024-03-08T02:54:40;100317.97;;;25.83;37.70
39275;BME280;24980;48.874;2.332;2024-03-08T02:57:14;100313.92;;;25.82;37.70
39275;BME280;24980;48.874;2.332;2024-03-08T02:59:42;100311.79;;;25.81;37.71
39275;BME280;24980;48.874;2.332;2024-03-08T03:02:13;100308.92;;;25.80;37.72
39275;BME280;24980;48.874;2.332;2024-03-08T03:04:43;100307.93;;;25.79;37.73
39275;BME280;24980;48.874;2.332;2024-03-08T03:07:13;100299.34;;;25.78;37.74
39275;BME280;24980;48.874;2.332;2024-03-08T03:09:43;100289.34;;;25.79;37.73
39275;BME280;24980;48.874;2.332;2024-03-08T03:12:14;100280.56;;;25.82;37.71
39275;BME280;24980;48.874;2.332;2024-03-08T03:14:44;100275.95;;;25.83;37.69
39275;BME280;24980;48.874;2.332;2024-03-08T03:17:14;100275.84;;;25.84;37.68
39275;BME280;24980;48.874;2.332;2024-03-08T03:19:44;100271.72;;;25.82;37.68
39275;BME280;24980;48.874;2.332;2024-03-08T03:22:15;100271.39;;;25.82;37.69
39275;BME280;24980;48.874;2.332;2024-03-08T03:24:45;100271.19;;;25.83;37.67
39275;BME280;24980;48.874;2.332;2024-03-08T03:27:18;100265.92;;;25.83;37.68
39275;BME280;24980;48.874;2.332;2024-03-08T03:29:46;100263.88;;;25.85;37.67
39275;BME280;24980;48.874;2.332;2024-03-08T03:32:16;100261.02;;;25.87;37.64
39275;BME280;24980;48.874;2.332;2024-03-08T03:34:46;100256.79;;;25.89;37.63
39275;BME280;24980;48.874;2.332;2024-03-08T03:37:16;100249.80;;;25.91;37.60
39275;BME280;24980;48.874;2.332;2024-03-08T03:39:49;100241.64;;;25.92;37.56
39275;BME280;24980;48.874;2.332;2024-03-08T03:42:18;100228.70;;;25.92;37.56
39275;BME280;24980;48.874;2.332;2024-03-08T03:44:48;100231.95;;;25.92;37.56
39275;BME280;24980;48.874;2.332;2024-03-08T03:47:18;100242.00;;;25.94;37.57
39275;BME280;24980;48.874;2.332;2024-03-08T03:49:49;100249.86;;;25.92;37.55
39275;BME280;24980;48.874;2.332;2024-03-08T03:52:20;100253.31;;;25.95;37.53
39275;BME280;24980;48.874;2.332;2024-03-08T03:54:49;100251.44;;;25.95;37.50
39275;BME280;24980;48.874;2.332;2024-03-08T03:57:19;100241.25;;;25.95;37.49
39275;BME280;24980;48.874;2.332;2024-03-08T03:59:49;100243.90;;;25.94;37.49
39275;BME280;24980;48.874;2.332;2024-03-08T04:02:19;100244.30;;;25.95;37.49
39275;BME280;24980;48.874;2.332;2024-03-08T04:04:50;100239.18;;;25.96;37.47
39275;BME280;24980;48.874;2.332;2024-03-08T04:07:21;100237.53;;;25.95;37.48
39275;BME280;24980;48.874;2.332;2024-03-08T04:09:51;100237.25;;;25.95;37.48
39275;BME280;24980;48.874;2.332;2024-03-08T04:12:21;100240.29;;;25.98;37.46
39275;BME280;24980;48.874;2.332;2024-03-08T04:14:52;100244.26;;;25.99;37.44
39275;BME280;24980;48.874;2.332;2024-03-08T04:17:22;100240.29;;;25.98;37.44
39275;BME280;24980;48.874;2.332;2024-03-08T04:19:53;100234.19;;;25.95;37.46
39275;BME280;24980;48.874;2.332;2024-03-08T04:22:23;100235.97;;;25.96;37.48
39275;BME280;24980;48.874;2.332;2024-03-08T04:24:53;100233.76;;;25.96;37.46
39275;BME280;24980;48.874;2.332;2024-03-08T04:27:24;100225.58;;;25.97;37.46
39275;BME280;24980;48.874;2.332;2024-03-08T04:29:54;100219.78;;;25.97;37.44
39275;BME280;24980;48.874;2.332;2024-03-08T04:32:24;100216.03;;;26.00;37.43
39275;BME280;24980;48.874;2.332;2024-03-08T04:34:55;100208.30;;;26.00;37.41
39275;BME280;24980;48.874;2.332;2024-03-08T04:37:25;100199.52;;;25.98;37.43
39275;BME280;24980;48.874;2.332;2024-03-08T04:39:55;100199.08;;;25.97;37.44
39275;BME280;24980;48.874;2.332;2024-03-08T04:42:26;100198.60;;;25.98;37.43
39275;BME280;24980;48.874;2.332;2024-03-08T04:44:57;100201.22;;;25.98;37.43
39275;BME280;24980;48.874;2.332;2024-03-08T04:47:27;100194.62;;;26.00;37.42
39275;BME280;24980;48.874;2.332;2024-03-08T04:49:57;100193.20;;;26.01;37.41
39275;BME280;24980;48.874;2.332;2024-03-08T04:52:27;100197.67;;;26.02;37.39
39275;BME280;24980;48.874;2.332;2024-03-08T04:54:59;100203.76;;;26.03;37.37
39275;BME280;24980;48.874;2.332;2024-03-08T04:57:28;100197.69;;;26.01;37.37
39275;BME280;24980;48.874;2.332;2024-03-08T04:59:58;100192.95;;;26.01;37.38
39275;BME280;24980;48.874;2.332;2024-03-08T05:02:28;100189.12;;;26.01;37.38
39275;BME280;24980;48.874;2.332;2024-03-08T05:04:59;100187.06;;;26.02;37.38
39275;BME280;24980;48.874;2.332;2024-03-08T05:07:29;100185.66;;;26.03;37.36
39275;BME280;24980;48.874;2.332;2024-03-08T05:09:59;100179.10;;;26.04;37.36
39275;BME280;24980;48.874;2.332;2024-03-08T05:12:30;100175.86;;;26.06;37.33
39275;BME280;24980;48.874;2.332;2024-03-08T05:15:00;100171.02;;;26.06;37.30
39275;BME280;24980;48.874;2.332;2024-03-08T05:17:30;100168.66;;;26.05;37.30
39275;BME280;24980;48.874;2.332;2024-03-08T05:20:03;100168.12;;;26.06;37.29
39275;BME280;24980;48.874;2.332;2024-03-08T05:22:31;100163.81;;;26.06;37.28
39275;BME280;24980;48.874;2.332;2024-03-08T05:25:01;100162.02;;;26.06;37.27
39275;BME280;24980;48.874;2.332;2024-03-08T05:27:32;100152.66;;;26.06;37.25
39275;BME280;24980;48.874;2.332;2024-03-08T05:30:02;100146.95;;;26.07;37.24
39275;BME280;24980;48.874;2.332;2024-03-08T05:32:33;100151.28;;;26.07;37.21
39275;BME280;24980;48.874;2.332;2024-03-08T05:35:03;100153.25;;;26.07;37.21
39275;BME280;24980;48.874;2.332;2024-03-08T05:37:33;100150.12;;;26.06;37.21
39275;BME280;24980;48.874;2.332;2024-03-08T05:40:04;100148.17;;;26.08;37.19
39275;BME280;24980;48.874;2.332;2024-03-08T05:42:35;100155.95;;;26.07;37.19
39275;BME280;24980;48.874;2.332;2024-03-08T05:45:06;100153.97;;;26.11;37.16
39275;BME280;24980;48.874;2.332;2024-03-08T05:47:39;100151.06;;;26.14;37.13
39275;BME280;24980;48.874;2.332;2024-03-08T05:50:07;100150.02;;;26.13;37.12
39275;BME280;24980;48.874;2.332;2024-03-08T05:52:38;100150.38;;;26.12;37.11
39275;BME280;24980;48.874;2.332;2024-03-08T05:55:08;100147.96;;;26.11;37.10
39275;BME280;24980;48.874;2.332;2024-03-08T05:57:38;100153.60;;;26.08;37.13
39275;BME280;24980;48.874;2.332;2024-03-08T06:00:10;100155.98;;;26.08;37.15
39275;BME280;24980;48.874;2.332;2024-03-08T06:02:39;100152.95;;;26.10;37.13
39275;BME280;24980;48.874;2.332;2024-03-08T06:05:10;100153.70;;;26.10;37.13
39275;BME280;24980;48.874;2.332;2024-03-08T06:07:40;100155.98;;;26.12;37.13
39275;BME280;24980;48.874;2.332;2024-03-08T06:10:11;100150.86;;;26.15;37.10
39275;BME280;24980;48.874;2.332;2024-03-08T06:12:40;100148.74;;;26.14;37.10
39275;BME280;24980;48.874;2.332;2024-03-08T06:15:11;100141.50;;;26.15;37.10
39275;BME280;24980;48.874;2.332;2024-03-08T06:17:41;100135.97;;;26.15;37.08
39275;BME280;24980;48.874;2.332;2024-03-08T06:20:12;100135.60;;;26.14;37.08
39275;BME280;24980;48.874;2.332;2024-03-08T06:22:42;100134.53;;;26.13;37.07
39275;BME280;24980;48.874;2.332;2024-03-08T06:25:12;100131.42;;;26.13;37.07
39275;BME280;24980;48.874;2.332;2024-03-08T06:27:43;100126.04;;;26.15;37.04
39275;BME280;24980;48.874;2.332;2024-03-08T06:30:14;100126.96;;;26.18;37.01
39275;BME280;24980;48.874;2.332;2024-03-08T06:32:44;100125.52;;;26.17;37.01
39275;BME280;24980;48.874;2.332;2024-03-08T06:35:14;100119.66;;;26.15;37.02
39275;BME280;24980;48.874;2.332;2024-03-08T06:37:45;100124.25;;;26.15;37.03
39275;BME280;24980;48.874;2.332;2024-03-08T06:40:15;100131.29;;;26.16;37.04
39275;BME280;24980;48.874;2.332;2024-03-08T06:42:46;100130.88;;;26.15;37.05
39275;BME280;24980;48.874;2.332;2024-03-08T06:45:16;100129.59;;;26.16;37.04
39275;BME280;24980;48.874;2.332;2024-03-08T06:47:47;100128.23;;;26.17;37.04
39275;BME280;24980;48.874;2.332;2024-03-08T06:50:17;100124.00;;;26.18;37.03
39275;BME280;24980;48.874;2.332;2024-03-08T06:52:48;100123.42;;;26.17;37.03
39275;BME280;24980;48.874;2.332;2024-03-08T06:55:18;100124.52;;;26.17;37.05
39275;BME280;24980;48.874;2.332;2024-03-08T06:57:48;100123.39;;;26.18;37.08
39275;BME280;24980;48.874;2.332;2024-03-08T07:00:19;100126.17;;;26.19;37.09
39275;BME280;24980;48.874;2.332;2024-03-08T07:02:49;100117.73;;;26.20;37.11
39275;BME280;24980;48.874;2.332;2024-03-08T07:05:19;100111.97;;;26.21;37.08
39275;BME280;24980;48.874;2.332;2024-03-08T07:07:51;100106.23;;;26.22;37.07
39275;BME280;24980;48.874;2.332;2024-03-08T07:10:21;100096.05;;;26.24;37.07
39275;BME280;24980;48.874;2.332;2024-03-08T07:12:54;100101.56;;;26.23;37.07
39275;BME280;24980;48.874;2.332;2024-03-08T07:15:21;100099.04;;;26.23;37.07
39275;BME280;24980;48.874;2.332;2024-03-08T07:17:52;100102.44;;;26.23;37.06
39275;BME280;24980;48.874;2.332;2024-03-08T07:20:22;100098.87;;;26.23;37.05
39275;BME280;24980;48.874;2.332;2024-03-08T07:22:53;100093.89;;;26.25;37.03
39275;BME280;24980;48.874;2.332;2024-03-08T07:25:23;100096.00;;;26.27;36.99
39275;BME280;24980;48.874;2.332;2024-03-08T07:27:57;100096.76;;;26.27;36.98
39275;BME280;24980;48.874;2.332;2024-03-08T07:30:25;100094.69;;;26.26;36.98
39275;BME280;24980;48.874;2.332;2024-03-08T07:32:55;100090.92;;;26.30;36.95
39275;BME280;24980;48.874;2.332;2024-03-08T07:35:25;100086.42;;;26.30;36.92
39275;BME280;24980;48.874;2.332;2024-03-08T07:37:56;100088.80;;;26.30;36.92
39275;BME280;24980;48.874;2.332;2024-03-08T07:40:28;100093.61;;;26.30;36.90
39275;BME280;24980;48.874;2.332;2024-03-08T07:42:57;100089.88;;;26.30;36.88
39275;BME280;24980;48.874;2.332;2024-03-08T07:45:27;100093.45;;;26.31;36.86
39275;BME280;24980;48.874;2.332;2024-03-08T07:48:00;100093.55;;;26.29;36.83
39275;BME280;24980;48.874;2.332;2024-03-08T07:50:27;100095.66;;;26.17;36.92
39275;BME280;24980;48.874;2.332;2024-03-08T07:52:58;100091.45;;;26.07;36.99
39275;BME280;24980;48.874;2.332;2024-03-08T07:55:28;100089.23;;;26.02;37.04
39275;BME280;24980;48.874;2.332;2024-03-08T07:57:59;100088.97;;;25.98;37.06
39275;BME280;24980;48.874;2.332;2024-03-08T08:00:30;100086.22;;;25.95;37.09
39275;BME280;24980;48.874;2.332;2024-03-08T08:03:00;100079.05;;;25.94;37.10
39275;BME280;24980;48.874;2.332;2024-03-08T08:05:30;100079.81;;;25.91;37.12
39275;BME280;24980;48.874;2.332;2024-03-08T08:08:01;100076.36;;;25.89;37.17
39275;BME280;24980;48.874;2.332;2024-03-08T08:10:34;100075.84;;;25.85;37.20
39275;BME280;24980;48.874;2.332;2024-03-08T08:13:02;100072.68;;;25.84;37.21
39275;BME280;24980;48.874;2.332;2024-03-08T08:15:32;100072.79;;;25.83;37.22
39275;BME280;24980;48.874;2.332;2024-03-08T08:18:03;100071.03;;;25.82;37.24
39275;BME280;24980;48.874;2.332;2024-03-08T08:20:37;100066.89;;;25.82;37.24
39275;BME280;24980;48.874;2.332;2024-03-08T08:23:04;100060.30;;;25.83;37.23
39275;BME280;24980;48.874;2.332;2024-03-08T08:25:34;100056.24;;;25.83;37.23
39275;BME280;24980;48.874;2.332;2024-03-08T08:28:05;100061.23;;;25.84;37.22
39275;BME280;24980;48.874;2.332;2024-03-08T08:30:35;100058.04;;;25.81;37.23
39275;BME280;24980;48.874;2.332;2024-03-08T08:33:05;100057.64;;;25.80;37.26
39275;BME280;24980;48.874;2.332;2024-03-08T08:35:36;100054.21;;;25.81;37.27
39275;BME280;24980;48.874;2.332;2024-03-08T08:38:06;100051.03;;;25.85;37.28
39275;BME280;24980;48.874;2.332;2024-03-08T08:40:37;100053.38;;;25.91;37.25
39275;BME280;24980;48.874;2.332;2024-03-08T08:43:07;100047.90;;;25.94;37.24
39275;BME280;24980;48.874;2.332;2024-03-08T08:45:37;100041.17;;;25.96;37.24
39275;BME280;24980;48.874;2.332;2024-03-08T08:48:08;100039.33;;;25.95;37.25
39275;BME280;24980;48.874;2.332;2024-03-08T08:50:38;100036.38;;;25.93;37.29
39275;BME280;24980;48.874;2.332;2024-03-08T08:53:08;100033.95;;;25.92;37.31
39275;BME280;24980;48.874;2.332;2024-03-08T08:55:40;100024.59;;;25.91;37.34
39275;BME280;24980;48.874;2.332;2024-03-08T08:58:09;100021.14;;;25.92;37.35
39275;BME280;24980;48.874;2.332;2024-03-08T09:00:41;100019.91;;;25.93;37.36
39275;BME280;24980;48.874;2.332;2024-03-08T09:03:10;100015.58;;;25.97;37.36
39275;BME280;24980;48.874;2.332;2024-03-08T09:05:40;100017.52;;;25.99;37.37
39275;BME280;24980;48.874;2.332;2024-03-08T09:08:10;100005.26;;;26.00;37.38
39275;BME280;24980;48.874;2.332;2024-03-08T09:10:41;100003.63;;;26.00;37.40
39275;BME280;24980;48.874;2.332;2024-03-08T09:13:12;100005.77;;;26.00;37.43
39275;BME280;24980;48.874;2.332;2024-03-08T09:15:42;99999.01;;;25.99;37.47
39275;BME280;24980;48.874;2.332;2024-03-08T09:18:12;99994.98;;;26.02;37.47
39275;BME280;24980;48.874;2.332;2024-03-08T09:20:42;99991.06;;;26.06;37.46
39275;BME280;24980;48.874;2.332;2024-03-08T09:23:13;99991.73;;;26.12;37.41
39275;BME280;24980;48.874;2.332;2024-03-08T09:25:43;99986.75;;;26.17;37.36
39275;BME280;24980;48.874;2.332;2024-03-08T09:28:14;99986.56;;;26.22;37.34
39275;BME280;24980;48.874;2.332;2024-03-08T09:30:47;99978.58;;;26.27;37.30
39275;BME280;24980;48.874;2.332;2024-03-08T09:33:14;99979.34;;;26.31;37.27
39275;BME280;24980;48.874;2.332;2024-03-08T09:35:47;99975.84;;;26.32;37.25
39275;BME280;24980;48.874;2.332;2024-03-08T09:38:15;99973.08;;;26.31;37.27
39275;BME280;24980;48.874;2.332;2024-03-08T09:40:45;99970.50;;;26.33;37.27
39275;BME280;24980;48.874;2.332;2024-03-08T09:43:16;99966.27;;;26.36;37.24
39275;BME280;24980;48.874;2.332;2024-03-08T09:45:46;99967.11;;;26.40;37.20
39275;BME280;24980;48.874;2.332;2024-03-08T09:48:18;99953.24;;;26.45;37.18
39275;BME280;24980;48.874;2.332;2024-03-08T09:50:46;99953.27;;;26.48;37.16
39275;BME280;24980;48.874;2.332;2024-03-08T09:53:17;99952.31;;;26.50;37.14
39275;BME280;24980;48.874;2.332;2024-03-08T09:55:48;99946.95;;;26.54;37.11
39275;BME280;24980;48.874;2.332;2024-03-08T09:58:18;99941.66;;;26.55;37.08
39275;BME280;24980;48.874;2.332;2024-03-08T10:00:48;99940.98;;;26.56;37.07
39275;BME280;24980;48.874;2.332;2024-03-08T10:03:19;99927.91;;;26.58;37.06
39275;BME280;24980;48.874;2.332;2024-03-08T10:05:52;99927.28;;;26.58;37.05
39275;BME280;24980;48.874;2.332;2024-03-08T10:08:18;99929.58;;;26.60;37.04
39275;BME280;24980;48.874;2.332;2024-03-08T10:10:51;99921.88;;;26.61;37.03
39275;BME280;24980;48.874;2.332;2024-03-08T10:13:19;99920.95;;;26.61;37.04
39275;BME280;24980;48.874;2.332;2024-03-08T10:15:50;99918.66;;;26.61;37.03
39275;BME280;24980;48.874;2.332;2024-03-08T10:18:20;99924.50;;;26.62;37.03
39275;BME280;24980;48.874;2.332;2024-03-08T10:21:02;99920.36;;;26.61;37.03
39275;BME280;24980;48.874;2.332;2024-03-08T10:23:21;99912.39;;;26.60;37.04
39275;BME280;24980;48.874;2.332;2024-03-08T10:25:51;99915.71;;;26.60;37.04
39275;BME280;24980;48.874;2.332;2024-03-08T10:28:22;99906.41;;;26.59;37.05
39275;BME280;24980;48.874;2.332;2024-03-08T10:30:51;99905.70;;;26.58;37.06
39275;BME280;24980;48.874;2.332;2024-03-08T10:33:21;99901.96;;;26.58;37.08
39275;BME280;24980;48.874;2.332;2024-03-08T10:35:52;99894.65;;;26.58;37.10
39275;BME280;24980;48.874;2.332;2024-03-08T10:38:23;99893.84;;;26.57;37.10
39275;BME280;24980;48.874;2.332;2024-03-08T10:40:53;99891.23;;;26.57;37.11
39275;BME280;24980;48.874;2.332;2024-03-08T10:43:24;99884.19;;;26.56;37.12
39275;BME280;24980;48.874;2.332;2024-03-08T10:46:05;99882.98;;;26.57;37.11
39275;BME280;24980;48.874;2.332;2024-03-08T10:48:28;99882.16;;;26.55;37.12
39275;BME280;24980;48.874;2.332;2024-03-08T10:50:57;99882.31;;;26.53;37.13
39275;BME280;24980;48.874;2.332;2024-03-08T10:53:29;99880.77;;;26.50;37.15
39275;BME280;24980;48.874;2.332;2024-03-08T10:55:57;99874.92;;;26.48;37.16
39275;BME280;24980;48.874;2.332;2024-03-08T10:58:27;99871.23;;;26.45;37.19
39275;BME280;24980;48.874;2.332;2024-03-08T11:00:58;99863.83;;;26.42;37.20
39275;BME280;24980;48.874;2.332;2024-03-08T11:03:48;99863.70;;;26.41;37.21
39275;BME280;24980;48.874;2.332;2024-03-08T11:06:01;99856.23;;;26.40;37.24
39275;BME280;24980;48.874;2.332;2024-03-08T11:08:35;99853.27;;;26.40;37.26
39275;BME280;24980;48.874;2.332;2024-03-08T11:11:00;99853.80;;;26.39;37.31
39275;BME280;24980;48.874;2.332;2024-03-08T11:13:40;99853.52;;;26.40;37.32
39275;BME280;24980;48.874;2.332;2024-03-08T11:16:01;99849.86;;;26.40;37.33
39275;BME280;24980;48.874;2.332;2024-03-08T11:18:35;99847.08;;;26.40;37.33
39275;BME280;24980;48.874;2.332;2024-03-08T11:21:06;99851.98;;;26.39;37.33
39275;BME280;24980;48.874;2.332;2024-03-08T11:23:31;99848.48;;;26.37;37.32
39275;BME280;24980;48.874;2.332;2024-03-08T11:26:02;99844.77;;;26.35;37.34
39275;BME280;24980;48.874;2.332;2024-03-08T11:28:32;99843.45;;;26.34;37.35
39275;BME280;24980;48.874;2.332;2024-03-08T11:33:35;99838.59;;;26.31;37.37
39275;BME280;24980;48.874;2.332;2024-03-08T11:36:15;99829.92;;;26.30;37.38
39275;BME280;24980;48.874;2.332;2024-03-08T11:38:45;99821.48;;;26.28;37.39
39275;BME280;24980;48.874;2.332;2024-03-08T11:41:04;99820.94;;;26.27;37.39
39275;BME280;24980;48.874;2.332;2024-03-08T11:43:34;99818.22;;;26.27;37.41
39275;BME280;24980;48.874;2.332;2024-03-08T11:46:08;99820.67;;;26.27;37.42
39275;BME280;24980;48.874;2.332;2024-03-08T11:48:35;99813.61;;;26.27;37.42
39275;BME280;24980;48.874;2.332;2024-03-08T11:51:05;99806.77;;;26.28;37.42
39275;BME280;24980;48.874;2.332;2024-03-08T11:53:36;99802.11;;;26.28;37.44
39275;BME280;24980;48.874;2.332;2024-03-08T11:56:13;99803.51;;;26.27;37.46
39275;BME280;24980;48.874;2.332;2024-03-08T11:58:38;99804.24;;;26.28;37.46
39275;BME280;24980;48.874;2.332;2024-03-08T12:01:08;99800.60;;;26.28;37.46
39275;BME280;24980;48.874;2.332;2024-03-08T12:03:41;99791.59;;;26.26;37.48
39275;BME280;24980;48.874;2.332;2024-03-08T12:06:11;99790.78;;;26.27;37.50
39275;BME280;24980;48.874;2.332;2024-03-08T12:08:41;99785.08;;;26.26;37.50
39275;BME280;24980;48.874;2.332;2024-03-08T12:11:09;99778.61;;;26.26;37.51
39275;BME280;24980;48.874;2.332;2024-03-08T12:13:39;99772.75;;;26.26;37.52
39275;BME280;24980;48.874;2.332;2024-03-08T12:16:09;99776.47;;;26.26;37.54
39275;BME280;24980;48.874;2.332;2024-03-08T12:18:39;99774.72;;;26.27;37.54
39275;BME280;24980;48.874;2.332;2024-03-08T12:21:11;99770.14;;;26.27;37.55
39275;BME280;24980;48.874;2.332;2024-03-08T12:23:40;99762.64;;;26.27;37.57
39275;BME280;24980;48.874;2.332;2024-03-08T12:26:11;99758.30;;;26.26;37.59
39275;BME280;24980;48.874;2.332;2024-03-08T12:28:41;99755.84;;;26.26;37.60
39275;BME280;24980;48.874;2.332;2024-03-08T12:31:12;99749.50;;;26.27;37.59
39275;BME280;24980;48.874;2.332;2024-03-08T12:33:49;99756.03;;;26.26;37.59
39275;BME280;24980;48.874;2.332;2024-03-08T12:36:14;99752.67;;;26.25;37.59
39275;BME280;24980;48.874;2.332;2024-03-08T12:38:46;99750.23;;;26.24;37.60
39275;BME280;24980;48.874;2.332;2024-03-08T12:41:14;99742.44;;;26.22;37.61
39275;BME280;24980;48.874;2.332;2024-03-08T12:43:45;99740.53;;;26.21;37.61
39275;BME280;24980;48.874;2.332;2024-03-08T12:46:18;99739.46;;;26.20;37.60
39275;BME280;24980;48.874;2.332;2024-03-08T12:48:45;99733.11;;;26.22;37.59
39275;BME280;24980;48.874;2.332;2024-03-08T12:51:16;99727.05;;;26.22;37.57
39275;BME280;24980;48.874;2.332;2024-03-08T12:53:45;99725.27;;;26.23;37.57
39275;BME280;24980;48.874;2.332;2024-03-08T12:56:35;99722.03;;;26.24;37.55
39275;BME280;24980;48.874;2.332;2024-03-08T12:58:47;99713.05;;;26.26;37.55
39275;BME280;24980;48.874;2.332;2024-03-08T13:01:17;99717.00;;;26.25;37.55
39275;BME280;24980;48.874;2.332;2024-03-08T13:03:48;99711.34;;;26.24;37.56
39275;BME280;24980;48.874;2.332;2024-03-08T13:06:19;99700.53;;;26.24;37.55
39275;BME280;24980;48.874;2.332;2024-03-08T13:08:49;99698.03;;;26.22;37.54
39275;BME280;24980;48.874;2.332;2024-03-08T13:11:20;99698.84;;;26.20;37.53